Time;durP1;ratioP1;P1;durP2;ratioP2;P2;SDS_P1;SDS_P2;PMS_P1;PMS_P2;Temp;Humidity;BMP_temperature;BMP_pressure;BME280_temperature;BME280_humidity;BME280_pressure;Samples;Min_cycle;Max_cycle;Signal;HPM_P1;HPM_P2
2022/10/16 00:01:48;;;;;;;;;;;16.40;67.30;;;12.06;100.00;95535.25;4998580;28;20287;-50
2022/10/16 00:04:20;;;;;;;;;;;16.40;67.40;;;12.04;100.00;95535.53;5001305;28;19909;-50
2022/10/16 00:06:48;;;;;;;;;;;16.40;67.40;;;12.02;100.00;95535.00;5025280;28;19917;-48
2022/10/16 00:09:17;;;;;;;;;;;16.30;67.40;;;12.01;100.00;95528.06;5030255;28;19915;-50
2022/10/16 00:11:46;;;;;;;;;;;16.30;67.50;;;12.02;100.00;95525.09;5012570;28;19979;-48
2022/10/16 00:14:15;;;;;;;;;;;16.30;67.50;;;12.05;100.00;95529.09;5022992;28;19916;-46
2022/10/16 00:16:42;;;;;;;;;;;16.40;67.70;;;12.09;100.00;95537.34;4996065;28;19908;-51
2022/10/16 00:19:19;;;;;;;;;;;16.40;67.70;;;12.17;100.00;95532.25;5006057;28;19939;-47
2022/10/16 00:21:45;;;;;;;;;;;16.40;67.80;;;12.26;100.00;95535.16;5028920;28;19939;-48
2022/10/16 00:24:17;;;;;;;;;;;16.40;68.60;;;12.33;100.00;95538.28;5029724;28;19917;-47
2022/10/16 00:26:43;;;;;;;;;;;16.50;67.90;;;12.39;100.00;95531.06;5029306;28;19913;-51
2022/10/16 00:29:14;;;;;;;;;;;16.60;68.00;;;12.40;100.00;95533.44;5028619;28;19915;-46
2022/10/16 00:31:43;;;;;;;;;;;16.60;67.90;;;12.42;100.00;95533.19;5008211;28;19909;-48
2022/10/16 00:34:09;;;;;;;;;;;16.70;67.90;;;12.45;100.00;95529.94;5024032;28;19932;-50
2022/10/16 00:36:35;;;;;;;;;;;16.70;67.80;;;12.51;100.00;95539.53;5029809;28;20359;-49
2022/10/16 00:39:07;;;;;;;;;;;16.80;67.90;;;12.59;100.00;95538.13;5015573;28;19934;-46
2022/10/16 00:41:33;;;;;;;;;;;16.80;67.80;;;12.65;100.00;95539.69;5009982;28;20004;-52
2022/10/16 00:44:24;;;;;;;;;;;16.80;67.80;;;12.68;100.00;95547.94;5003437;28;20367;-48
2022/10/16 00:46:56;;;;;;;;;;;16.90;67.80;;;12.69;100.00;95548.75;5028666;28;20027;-50
2022/10/16 00:49:25;;;;;;;;;;;16.90;67.70;;;12.64;100.00;95544.25;5028213;28;19923;-46
2022/10/16 00:51:53;;;;;;;;;;;16.90;67.60;;;12.66;100.00;95547.44;5017993;28;19931;-51
2022/10/16 00:54:30;;;;;;;;;;;16.90;67.50;;;12.64;100.00;95551.47;4995959;28;19916;-47
2022/10/16 00:57:07;;;;;;;;;;;17.00;67.50;;;12.66;100.00;95546.63;5015494;28;20359;-49
2022/10/16 00:59:39;;;;;;;;;;;17.00;67.60;;;12.68;100.00;95547.16;5033460;28;19963;-46
2022/10/16 01:02:14;;;;;;;;;;;17.00;67.50;;;12.68;100.00;95552.50;5032232;28;19908;-49
2022/10/16 01:04:53;;;;;;;;;;;17.00;67.60;;;12.67;100.00;95553.59;5015496;28;19952;-46
2022/10/16 01:08:05;;;;;;;;;;;17.00;67.60;;;12.69;100.00;95557.59;5014783;28;19909;-50
2022/10/16 01:10:56;;;;;;;;;;;17.00;67.50;;;12.69;100.00;95546.91;5018804;28;19995;-49
2022/10/16 01:13:40;;;;;;;;;;;17.00;67.60;;;12.69;100.00;95552.25;5008641;28;20022;-50
2022/10/16 01:16:48;;;;;;;;;;;17.00;67.60;;;12.70;100.00;95547.69;5017223;28;20320;-47
2022/10/16 01:20:08;;;;;;;;;;;17.00;67.60;;;12.68;100.00;95536.47;5026796;28;20003;-53
2022/10/16 01:23:07;;;;;;;;;;;17.00;67.60;;;12.64;100.00;95549.59;5013453;28;19974;-50
2022/10/16 01:26:10;;;;;;;;;;;16.90;67.60;;;12.68;100.00;95547.94;5005391;28;19912;-50
2022/10/16 01:29:09;;;;;;;;;;;17.00;67.70;;;12.71;100.00;95554.63;5033060;28;19913;-47
2022/10/16 01:31:54;;;;;;;;;;;17.00;68.50;;;12.68;100.00;95553.28;5012996;28;20375;-49
2022/10/16 01:34:34;;;;;;;;;;;17.00;67.80;;;12.64;100.00;95552.25;5015404;28;20038;-48
2022/10/16 01:37:55;;;;;;;;;;;17.00;67.70;;;12.66;100.00;95562.66;5029045;28;19944;-52
2022/10/16 01:40:27;;;;;;;;;;;17.00;67.70;;;12.68;100.00;95553.28;4952657;28;20365;-46
2022/10/16 01:43:02;;;;;;;;;;;17.00;67.70;;;12.70;100.00;95561.84;4953074;28;19924;-52
2022/10/16 01:45:32;;;;;;;;;;;17.00;67.70;;;12.69;100.00;95562.94;4977684;28;19916;-47
2022/10/16 01:48:07;;;;;;;;;;;17.00;67.70;;;12.71;100.00;95555.41;4999981;28;19909;-47
2022/10/16 01:50:42;;;;;;;;;;;17.00;67.80;;;12.76;100.00;95557.25;5006685;28;19921;-53
2022/10/16 01:53:15;;;;;;;;;;;17.00;67.80;;;12.77;100.00;95553.50;5001967;28;19913;-50
2022/10/16 01:55:48;;;;;;;;;;;17.00;68.50;;;12.80;100.00;95554.81;5003687;28;20403;-48
2022/10/16 01:58:17;;;;;;;;;;;17.00;67.80;;;12.83;100.00;95557.75;5014992;28;19908;-51
2022/10/16 02:01:04;;;;;;;;;;;17.10;67.80;;;12.87;100.00;95549.94;5031071;28;20314;-50
2022/10/16 02:03:36;;;;;;;;;;;17.10;67.80;;;12.88;100.00;95547.03;5018416;28;19970;-51
2022/10/16 02:06:02;;;;;;;;;;;17.10;67.80;;;12.86;100.00;95559.06;5011102;28;19909;-50
2022/10/16 02:08:30;;;;;;;;;;;17.10;67.70;;;12.83;100.00;95559.63;4981475;28;19909;-49
2022/10/16 02:11:01;;;;;;;;;;;17.10;67.60;;;12.82;100.00;95560.69;5014540;28;19909;-51
2022/10/16 02:13:53;;;;;;;;;;;17.10;67.60;;;12.77;100.00;95556.19;5024130;28;19912;-49
2022/10/16 02:16:39;;;;;;;;;;;17.10;67.50;;;12.76;100.00;95569.84;5014834;28;19960;-50
2022/10/16 02:19:10;;;;;;;;;;;17.10;67.50;;;12.67;100.00;95565.06;5009446;28;19909;-51
2022/10/16 02:21:59;;;;;;;;;;;17.00;67.40;;;12.65;100.00;95566.41;5012248;28;19915;-49
2022/10/16 02:24:46;;;;;;;;;;;17.00;67.50;;;12.57;100.00;95569.69;5005072;28;19910;-51
2022/10/16 02:27:22;;;;;;;;;;;16.90;67.50;;;12.55;100.00;95579.84;5021421;28;20669;-53
2022/10/16 02:29:59;;;;;;;;;;;16.90;67.50;;;12.48;100.00;95567.59;4994267;28;19918;-49
2022/10/16 02:32:32;;;;;;;;;;;16.80;67.50;;;12.45;100.00;95570.03;5009348;28;20023;-47
2022/10/16 02:35:03;;;;;;;;;;;16.80;67.50;;;12.36;100.00;95572.47;4997230;28;19936;-47
2022/10/16 02:37:30;;;;;;;;;;;16.70;67.50;;;12.29;100.00;95566.63;5030633;28;19909;-51
2022/10/16 02:39:58;;;;;;;;;;;16.60;67.40;;;12.17;100.00;95564.28;5014132;28;19913;-47
2022/10/16 02:42:36;;;;;;;;;;;16.60;68.30;;;12.09;100.00;95564.84;5013755;28;20015;-47
2022/10/16 02:45:04;;;;;;;;;;;16.50;67.50;;;12.04;100.00;95554.22;4994020;28;19959;-47
2022/10/16 02:47:30;;;;;;;;;;;16.40;67.60;;;11.98;100.00;95552.63;5029583;28;19908;-47
2022/10/16 02:49:59;;;;;;;;;;;16.40;67.70;;;11.94;100.00;95548.91;5020138;28;20302;-48
2022/10/16 02:52:25;;;;;;;;;;;16.30;67.70;;;11.91;100.00;95546.78;4994258;28;20000;-47
2022/10/16 02:54:51;;;;;;;;;;;16.30;67.80;;;11.88;100.00;95555.34;5001187;28;20348;-47
2022/10/16 02:57:23;;;;;;;;;;;16.20;67.80;;;11.88;100.00;95574.03;5027539;28;19913;-48
2022/10/16 02:59:52;;;;;;;;;;;16.20;68.00;;;11.87;100.00;95575.09;5051204;28;20371;-47
2022/10/16 03:02:17;;;;;;;;;;;16.20;68.10;;;11.87;100.00;95565.22;5036503;28;19932;-49
2022/10/16 03:04:43;;;;;;;;;;;16.20;68.20;;;11.86;100.00;95568.16;5029970;28;20005;-47
2022/10/16 03:07:09;;;;;;;;;;;16.20;68.30;;;11.87;100.00;95567.09;5012859;28;20386;-47
2022/10/16 03:09:35;;;;;;;;;;;16.20;68.30;;;11.87;100.00;95561.75;5030689;28;20051;-48
2022/10/16 03:12:04;;;;;;;;;;;16.10;68.30;;;11.84;100.00;95564.94;5046551;28;19961;-47
2022/10/16 03:14:34;;;;;;;;;;;16.10;68.20;;;11.79;100.00;95568.44;5011815;28;19948;-47
2022/10/16 03:17:09;;;;;;;;;;;16.10;68.20;;;11.75;100.00;95570.84;5029361;28;19908;-48
2022/10/16 03:19:38;;;;;;;;;;;16.10;68.30;;;11.76;100.00;95572.44;5028329;28;19955;-50
2022/10/16 03:22:03;;;;;;;;;;;16.10;68.30;;;11.79;100.00;95581.78;5030616;28;19920;-50
2022/10/16 03:24:29;;;;;;;;;;;16.10;68.40;;;11.77;100.00;95574.03;5029125;28;19909;-47
2022/10/16 03:26:58;;;;;;;;;;;16.10;68.40;;;11.79;100.00;95587.91;5010597;28;19909;-47
2022/10/16 03:29:29;;;;;;;;;;;16.00;68.40;;;11.78;100.00;95588.97;5049131;28;19957;-47
2022/10/16 03:31:57;;;;;;;;;;;16.00;68.40;;;11.74;100.00;95590.56;5047928;28;19953;-49
2022/10/16 03:34:24;;;;;;;;;;;16.00;68.40;;;11.66;100.00;95577.81;5032023;28;19909;-49
2022/10/16 03:36:50;;;;;;;;;;;16.00;69.10;;;11.60;100.00;95581.56;5045681;28;19955;-52
2022/10/16 03:39:19;;;;;;;;;;;15.90;68.30;;;11.54;100.00;95594.09;5008982;28;20437;-49
2022/10/16 03:41:46;;;;;;;;;;;15.90;68.30;;;11.49;100.00;95591.44;5029135;28;19912;-48
2022/10/16 03:44:12;;;;;;;;;;;15.80;68.30;;;11.51;100.00;95596.50;5019674;28;19970;-48
2022/10/16 03:46:38;;;;;;;;;;;15.80;69.20;;;11.50;100.00;95600.22;5039232;28;19995;-51
2022/10/16 03:49:04;;;;;;;;;;;15.80;68.40;;;11.49;100.00;95598.63;5023019;28;19917;-49
2022/10/16 03:51:39;;;;;;;;;;;15.80;68.50;;;11.44;100.00;95594.13;5003010;28;19917;-49
2022/10/16 03:54:09;;;;;;;;;;;15.70;68.50;;;11.45;100.00;95597.59;5045219;28;19912;-50
2022/10/16 03:56:38;;;;;;;;;;;15.80;68.60;;;11.39;100.00;95594.13;5011603;28;20384;-52
2022/10/16 03:59:07;;;;;;;;;;;15.70;68.50;;;11.36;100.00;95592.00;5027725;28;19915;-53
2022/10/16 04:01:33;;;;;;;;;;;15.70;68.60;;;11.31;100.00;95592.81;5036078;28;19952;-52
2022/10/16 04:04:01;;;;;;;;;;;15.70;68.60;;;11.33;100.00;95585.31;5027851;28;19963;-48
2022/10/16 04:06:30;;;;;;;;;;;15.70;68.70;;;11.34;100.00;95583.44;5017454;28;20465;-47
2022/10/16 04:09:02;;;;;;;;;;;15.70;68.80;;;11.35;100.00;95585.88;5028175;28;19940;-49
2022/10/16 04:11:34;;;;;;;;;;;15.60;68.70;;;11.37;100.00;95590.91;5030029;28;19909;-48
2022/10/16 04:14:00;;;;;;;;;;;15.70;68.90;;;11.42;100.00;95593.59;5034560;28;20000;-49
2022/10/16 04:16:38;;;;;;;;;;;15.70;68.90;;;11.43;100.00;95586.38;5026963;28;19913;-49
2022/10/16 04:19:22;;;;;;;;;;;15.70;68.90;;;11.45;100.00;95600.25;5014504;28;19917;-47
2022/10/16 04:21:53;;;;;;;;;;;15.70;68.90;;;11.44;100.00;95607.47;5044415;28;19908;-48
2022/10/16 04:24:19;;;;;;;;;;;15.80;69.00;;;11.47;100.00;95608.78;5045000;28;19913;-52
2022/10/16 04:26:45;;;;;;;;;;;15.80;69.00;;;11.49;100.00;95609.31;5001494;28;20425;-49
2022/10/16 04:29:13;;;;;;;;;;;15.80;68.90;;;11.51;100.00;95607.19;5026493;28;19909;-47
2022/10/16 04:31:42;;;;;;;;;;;15.80;68.90;;;11.51;100.00;95599.19;5026291;28;19909;-47
2022/10/16 04:34:13;;;;;;;;;;;15.80;68.90;;;11.48;100.00;95600.50;5012545;28;20004;-47
2022/10/16 04:36:39;;;;;;;;;;;15.90;68.80;;;11.44;100.00;95610.13;5028300;28;19948;-49
2022/10/16 04:39:08;;;;;;;;;;;15.90;68.90;;;11.48;100.00;95610.38;5009062;28;19953;-47
2022/10/16 04:41:36;;;;;;;;;;;15.90;68.90;;;11.51;100.00;95618.66;5029477;28;19940;-47
2022/10/16 04:44:02;;;;;;;;;;;15.90;68.90;;;11.56;100.00;95613.31;5018437;28;19909;-47
2022/10/16 04:46:28;;;;;;;;;;;15.90;69.00;;;11.61;100.00;95611.69;5033894;28;19954;-49
2022/10/16 04:48:57;;;;;;;;;;;15.90;69.00;;;11.66;100.00;95628.50;5031231;28;19919;-47
2022/10/16 04:51:23;;;;;;;;;;;15.90;69.00;;;11.70;100.00;95628.75;5033419;28;19908;-48
2022/10/16 04:53:49;;;;;;;;;;;16.00;69.10;;;11.71;100.00;95628.47;5035473;28;19930;-49
2022/10/16 04:56:18;;;;;;;;;;;16.00;69.00;;;11.77;100.00;95630.06;5021458;28;20375;-49
2022/10/16 04:58:49;;;;;;;;;;;16.10;69.10;;;11.79;100.00;95633.28;5012625;28;19955;-48
2022/10/16 05:01:21;;;;;;;;;;;16.10;69.10;;;11.81;100.00;95635.66;5032489;28;19915;-48
2022/10/16 05:03:50;;;;;;;;;;;16.10;69.00;;;11.79;100.00;95637.81;5033656;28;19962;-49
2022/10/16 05:06:15;;;;;;;;;;;16.10;68.90;;;11.74;100.00;95632.47;5041482;28;19913;-50
2022/10/16 05:08:47;;;;;;;;;;;16.00;68.80;;;11.70;100.00;95632.22;5020990;28;19909;-48
2022/10/16 05:11:16;;;;;;;;;;;16.00;68.70;;;11.63;100.00;95636.25;5033077;28;19913;-49
2022/10/16 05:13:44;;;;;;;;;;;16.00;68.70;;;11.52;100.00;95632.78;5037725;28;20386;-50
2022/10/16 05:16:13;;;;;;;;;;;15.90;68.60;;;11.47;100.00;95633.59;5053080;28;20359;-49
2022/10/16 05:18:39;;;;;;;;;;;15.90;68.60;;;11.39;100.00;95633.34;5052676;28;20387;-47
2022/10/16 05:21:05;;;;;;;;;;;15.80;68.50;;;11.34;100.00;95634.94;5027950;28;19934;-47
2022/10/16 05:23:31;;;;;;;;;;;15.80;68.60;;;11.34;100.00;95628.78;5052450;28;19908;-47
2022/10/16 05:25:59;;;;;;;;;;;15.80;68.70;;;11.31;100.00;95629.31;5030936;28;19927;-48
2022/10/16 05:28:43;;;;;;;;;;;15.70;68.70;;;11.30;100.00;95627.72;5015543;28;19909;-47
2022/10/16 05:31:14;;;;;;;;;;;15.70;68.70;;;11.29;100.00;95626.13;5031799;28;19917;-52
2022/10/16 05:33:40;;;;;;;;;;;15.70;68.90;;;11.27;100.00;95626.41;5031375;28;19993;-51
2022/10/16 05:36:08;;;;;;;;;;;15.70;69.00;;;11.28;100.00;95630.69;5031470;28;20261;-49
2022/10/16 05:38:37;;;;;;;;;;;15.70;69.00;;;11.29;100.00;95631.47;5008074;28;20287;-49
2022/10/16 05:41:12;;;;;;;;;;;15.60;69.00;;;11.30;100.00;95630.41;5031864;28;19909;-47
2022/10/16 05:43:38;;;;;;;;;;;15.70;69.10;;;11.33;100.00;95635.19;5030584;28;20375;-50
2022/10/16 05:46:06;;;;;;;;;;;15.70;69.10;;;11.35;100.00;95636.53;5016758;28;19957;-47
2022/10/16 05:48:32;;;;;;;;;;;15.70;69.20;;;11.39;100.00;95636.78;5052496;28;20007;-47
2022/10/16 05:50:59;;;;;;;;;;;15.70;69.30;;;11.40;100.00;95633.06;5019302;28;19951;-50
2022/10/16 05:53:27;;;;;;;;;;;15.80;69.30;;;11.45;100.00;95637.59;5052168;28;19908;-49
2022/10/16 05:55:55;;;;;;;;;;;15.80;69.20;;;11.48;100.00;95645.06;5028034;28;19912;-47
2022/10/16 05:58:37;;;;;;;;;;;15.80;69.30;;;11.53;100.00;95645.03;4991542;28;19912;-48
2022/10/16 06:01:16;;;;;;;;;;;15.90;69.30;;;11.57;100.00;95648.78;5026936;28;19913;-47
2022/10/16 06:03:52;;;;;;;;;;;15.90;69.30;;;11.64;100.00;95657.31;5011372;28;19920;-47
2022/10/16 06:06:27;;;;;;;;;;;15.90;69.30;;;11.68;100.00;95653.03;5032576;28;20003;-48
2022/10/16 06:08:55;;;;;;;;;;;16.00;69.30;;;11.70;100.00;95648.22;5003421;28;19915;-49
2022/10/16 06:11:30;;;;;;;;;;;16.10;69.30;;;11.75;100.00;95653.56;5034533;28;19934;-47
2022/10/16 06:14:01;;;;;;;;;;;16.10;69.20;;;11.74;100.00;95651.16;5040609;28;19912;-47
2022/10/16 06:16:30;;;;;;;;;;;16.10;69.10;;;11.80;100.00;95658.88;5034747;28;20007;-47
2022/10/16 06:18:56;;;;;;;;;;;16.20;69.10;;;11.81;100.00;95662.34;5048376;28;20045;-48
2022/10/16 06:21:25;;;;;;;;;;;16.20;69.00;;;11.88;100.00;95664.78;5032031;28;19995;-49
2022/10/16 06:23:51;;;;;;;;;;;16.30;69.00;;;11.89;100.00;95653.03;5006914;28;20379;-47
2022/10/16 06:26:21;;;;;;;;;;;16.40;68.90;;;11.91;100.00;95662.38;5019834;28;19941;-51
2022/10/16 06:28:47;;;;;;;;;;;16.40;68.90;;;11.95;100.00;95668.75;5031809;28;19913;-47
2022/10/16 06:31:19;;;;;;;;;;;16.40;68.80;;;11.99;100.00;95661.00;5028511;28;20011;-47
2022/10/16 06:33:50;;;;;;;;;;;16.50;68.80;;;12.06;100.00;95666.06;5029913;28;19919;-48
2022/10/16 06:36:17;;;;;;;;;;;16.50;68.70;;;12.13;100.00;95671.94;5030552;28;19913;-47
2022/10/16 06:38:44;;;;;;;;;;;16.60;68.70;;;12.20;100.00;95675.91;5023658;28;19917;-49
2022/10/16 06:41:17;;;;;;;;;;;16.70;68.70;;;12.26;99.78;95680.16;5030393;28;19909;-47
2022/10/16 06:43:45;;;;;;;;;;;16.70;68.60;;;12.41;99.33;95681.16;5025048;28;19920;-48
2022/10/16 06:46:14;;;;;;;;;;;16.90;68.70;;;12.52;99.27;95689.94;5029871;28;19995;-48
2022/10/16 06:48:40;;;;;;;;;;;17.00;68.60;;;12.58;98.41;95686.19;5007307;28;19948;-50
2022/10/16 06:51:10;;;;;;;;;;;17.10;68.50;;;12.68;98.06;95694.13;5019816;28;20020;-48
2022/10/16 06:53:56;;;;;;;;;;;17.20;68.40;;;12.73;96.91;95692.25;5010272;28;20356;-47
2022/10/16 06:56:27;;;;;;;;;;;17.30;68.30;;;12.81;97.78;95703.44;4987917;28;19920;-48
2022/10/16 06:58:54;;;;;;;;;;;17.40;68.30;;;12.86;97.37;95712.22;4994122;28;19909;-50
2022/10/16 07:01:24;;;;;;;;;;;17.40;68.10;;;12.93;97.67;95723.41;4992159;28;19912;-47
2022/10/16 07:03:53;;;;;;;;;;;17.50;68.00;;;12.94;97.12;95719.69;4996295;28;20402;-47
2022/10/16 07:06:25;;;;;;;;;;;17.60;67.90;;;13.00;97.24;95728.44;5013794;28;19912;-47
2022/10/16 07:08:52;;;;;;;;;;;17.60;67.90;;;13.06;97.41;95729.22;5037238;28;20372;-50
2022/10/16 07:11:23;;;;;;;;;;;17.70;67.80;;;13.09;97.04;95732.16;4994127;28;19958;-48
2022/10/16 07:13:50;;;;;;;;;;;17.80;67.80;;;13.11;97.64;95735.34;5011476;28;20353;-47
2022/10/16 07:16:24;;;;;;;;;;;17.80;67.70;;;13.10;97.08;95733.75;4997019;28;19917;-48
2022/10/16 07:18:51;;;;;;;;;;;17.90;67.60;;;13.16;96.99;95735.34;5013099;28;19970;-47
2022/10/16 07:21:22;;;;;;;;;;;17.90;67.50;;;13.10;96.54;95731.09;5016169;28;19936;-48
2022/10/16 07:23:53;;;;;;;;;;;17.90;67.40;;;13.13;96.48;95743.91;5010818;28;19916;-47
2022/10/16 07:26:32;;;;;;;;;;;17.90;67.30;;;13.12;96.23;95739.63;5010890;28;19920;-49
2022/10/16 07:29:16;;;;;;;;;;;17.90;67.20;;;13.07;97.14;95745.00;5011110;28;20308;-47
2022/10/16 07:31:44;;;;;;;;;;;17.90;67.20;;;13.03;97.53;95751.97;5001440;28;19919;-47
2022/10/16 07:34:12;;;;;;;;;;;17.80;67.10;;;13.05;97.25;95754.38;5012850;28;19909;-47
2022/10/16 07:36:41;;;;;;;;;;;17.80;67.10;;;13.01;97.75;95761.38;5030889;28;19917;-47
2022/10/16 07:39:17;;;;;;;;;;;17.80;67.90;;;13.01;97.56;95764.84;5030145;28;19913;-49
2022/10/16 07:41:43;;;;;;;;;;;17.70;67.10;;;13.02;98.47;95766.41;5013261;28;19920;-49
2022/10/16 07:44:18;;;;;;;;;;;17.90;67.10;;;13.16;98.74;95766.59;5011553;28;20282;-50
2022/10/16 07:46:47;;;;;;;;;;;18.00;66.90;;;13.37;98.33;95776.16;5030649;28;20400;-51
2022/10/16 07:49:12;;;;;;;;;;;18.30;66.80;;;13.65;99.06;95777.28;5025631;28;20369;-50
2022/10/16 07:51:39;;;;;;;;;;;18.60;66.70;;;14.02;97.65;95777.81;5010680;28;19916;-51
2022/10/16 07:54:09;;;;;;;;;;;19.10;66.60;;;14.48;92.56;95780.06;5010552;28;19915;-50
2022/10/16 07:56:40;;;;;;;;;;;19.60;66.40;;;14.95;91.48;95786.53;5007859;28;19913;-51
2022/10/16 07:59:06;;;;;;;;;;;20.20;66.10;;;15.41;87.13;95780.56;5012849;28;20390;-47
2022/10/16 08:01:35;;;;;;;;;;;20.70;65.70;;;15.96;83.58;95783.53;5027766;28;19909;-50
2022/10/16 08:04:01;;;;;;;;;;;21.30;65.20;;;16.47;80.04;95785.34;5028473;28;19916;-50
2022/10/16 08:06:34;;;;;;;;;;;21.80;64.70;;;16.88;78.52;95780.00;5009800;28;19917;-52
2022/10/16 08:09:05;;;;;;;;;;;22.30;64.10;;;17.38;72.65;95776.56;5035049;28;20383;-52
2022/10/16 08:11:37;;;;;;;;;;;22.90;63.50;;;17.88;70.38;95776.50;4976998;28;19966;-48
2022/10/16 08:14:06;;;;;;;;;;;23.40;63.60;;;18.32;68.31;95776.78;5007108;28;19909;-53
2022/10/16 08:16:31;;;;;;;;;;;23.90;62.20;;;18.81;67.16;95781.19;4993205;28;19913;-53
2022/10/16 08:19:00;;;;;;;;;;;24.30;61.60;;;19.30;66.13;95790.03;5011908;28;19927;-50
2022/10/16 08:21:26;;;;;;;;;;;24.80;61.10;;;19.67;63.35;95785.19;5028862;28;19908;-50
2022/10/16 08:23:54;;;;;;;;;;;25.20;60.40;;;19.60;60.36;95788.34;5028986;28;20280;-51
2022/10/16 08:26:24;;;;;;;;;;;25.60;59.80;;;19.87;59.44;95792.69;4999051;28;19952;-52
2022/10/16 08:28:55;;;;;;;;;;;25.80;59.10;;;20.16;58.43;95788.50;4992893;28;20538;-47
2022/10/16 08:31:21;;;;;;;;;;;26.20;58.80;;;20.46;58.22;95794.78;4997206;28;20364;-49
2022/10/16 08:33:53;;;;;;;;;;;26.50;58.40;;;20.78;58.63;95803.50;5029559;28;19917;-50
2022/10/16 08:36:19;;;;;;;;;;;26.80;58.00;;;21.03;57.90;95808.03;5009104;28;19914;-49
2022/10/16 08:38:54;;;;;;;;;;;27.10;57.60;;;21.20;58.19;95807.13;5026224;28;20383;-47
2022/10/16 08:41:40;;;;;;;;;;;27.30;57.00;;;21.51;55.84;95805.25;5030277;28;19951;-48
2022/10/16 08:44:37;;;;;;;;;;;27.60;56.90;;;22.00;56.26;95808.19;5026319;28;19912;-48
2022/10/16 08:47:47;;;;;;;;;;;28.00;56.50;;;22.35;54.14;95819.59;5009090;28;19909;-48
2022/10/16 08:50:29;;;;;;;;;;;28.50;56.30;;;22.47;54.02;95825.06;5009574;28;20000;-48
2022/10/16 08:52:56;;;;;;;;;;;28.90;55.50;;;22.79;51.21;95819.91;4992749;28;19909;-48
2022/10/16 08:55:50;;;;;;;;;;;29.00;55.00;;;23.06;51.83;95816.59;5009855;28;19913;-48
2022/10/16 08:58:29;;;;;;;;;;;29.40;54.80;;;23.50;49.83;95826.88;5010446;28;20614;-47
2022/10/16 09:01:18;;;;;;;;;;;29.70;54.50;;;23.59;49.79;95818.59;5010155;28;20000;-51
2022/10/16 09:04:02;;;;;;;;;;;30.00;53.80;;;23.78;49.65;95821.53;5023138;28;19916;-48
2022/10/16 09:06:39;;;;;;;;;;;30.20;53.50;;;23.96;48.07;95824.78;5025520;28;19908;-50
2022/10/16 09:10:00;;;;;;;;;;;30.30;53.10;;;23.73;48.64;95828.00;5024966;28;19908;-51
2022/10/16 09:13:34;;;;;;;;;;;30.50;52.70;;;23.97;48.65;95832.59;5028012;28;19997;-47
2022/10/16 09:16:24;;;;;;;;;;;30.80;52.30;;;24.27;48.55;95834.19;4988815;28;20371;-47
2022/10/16 09:19:04;;;;;;;;;;;31.10;52.00;;;24.22;49.33;95819.72;5030922;28;19919;-48
2022/10/16 09:21:36;;;;;;;;;;;31.40;51.60;;;24.49;49.00;95827.44;5051958;28;20279;-49
2022/10/16 09:24:23;;;;;;;;;;;31.60;51.30;;;24.70;47.34;95834.25;5018365;28;19909;-48
2022/10/16 09:26:50;;;;;;;;;;;31.80;50.90;;;24.98;47.76;95844.31;5007845;28;19919;-49
2022/10/16 09:29:23;;;;;;;;;;;32.00;50.60;;;25.06;46.82;95847.97;5017150;28;19909;-49
2022/10/16 09:31:55;;;;;;;;;;;32.20;50.40;;;25.41;47.28;95850.81;5033555;28;19958;-49
2022/10/16 09:34:47;;;;;;;;;;;32.40;50.20;;;25.61;46.72;95857.91;5015503;28;19912;-48
2022/10/16 09:37:22;;;;;;;;;;;32.70;49.90;;;25.58;44.48;95860.56;5022044;28;20094;-47
2022/10/16 09:39:54;;;;;;;;;;;32.90;49.40;;;25.82;45.55;95854.09;5012948;28;19912;-48
2022/10/16 09:42:27;;;;;;;;;;;33.10;49.00;;;25.96;44.86;95848.97;5022567;28;20291;-48
2022/10/16 09:44:54;;;;;;;;;;;33.30;48.80;;;26.09;42.16;95838.72;5021100;28;19909;-49
2022/10/16 09:47:39;;;;;;;;;;;33.40;48.50;;;26.16;43.62;95847.03;5031548;28;19916;-49
2022/10/16 09:50:24;;;;;;;;;;;33.40;48.00;;;26.06;41.91;95845.66;5021994;28;19917;-47
2022/10/16 09:53:13;;;;;;;;;;;33.40;47.90;;;26.21;42.64;95838.56;5022659;28;19912;-48
2022/10/16 09:55:50;;;;;;;;;;;33.30;47.60;;;26.15;44.09;95837.28;5028365;28;20325;-50
2022/10/16 09:58:16;;;;;;;;;;;33.20;47.70;;;26.15;42.90;95839.22;5006812;28;19908;-48
2022/10/16 10:00:53;;;;;;;;;;;32.90;47.70;;;25.81;43.64;95839.69;5034553;28;19938;-48
2022/10/16 10:03:41;;;;;;;;;;;32.80;47.60;;;25.73;42.63;95839.84;5023341;28;19912;-48
2022/10/16 10:06:25;;;;;;;;;;;32.90;47.50;;;25.77;43.20;95849.69;5031832;28;19917;-48
2022/10/16 10:09:31;;;;;;;;;;;32.80;47.40;;;25.86;42.15;95848.75;5032334;28;19983;-48
2022/10/16 10:12:06;;;;;;;;;;;32.90;47.10;;;25.75;42.41;95840.28;5036493;28;19912;-48
2022/10/16 10:14:52;;;;;;;;;;;33.10;46.90;;;25.73;41.77;95842.56;5016965;28;20297;-51
2022/10/16 10:17:31;;;;;;;;;;;33.10;46.60;;;26.10;41.87;95840.28;5009622;28;20334;-47
2022/10/16 10:20:38;;;;;;;;;;;33.20;46.30;;;26.15;42.43;95839.22;5011707;28;20066;-51
2022/10/16 10:23:25;;;;;;;;;;;33.50;46.10;;;26.31;42.12;95835.25;5034294;28;19923;-50
2022/10/16 10:26:23;;;;;;;;;;;33.90;45.80;;;26.63;41.23;95826.91;5031030;28;19921;-52
2022/10/16 10:29:16;;;;;;;;;;;34.30;45.50;;;26.83;40.39;95827.69;5033076;28;19985;-51
2022/10/16 10:32:22;;;;;;;;;;;34.60;45.10;;;27.26;40.66;95827.63;5042674;28;20647;-48
2022/10/16 10:35:36;;;;;;;;;;;34.90;44.80;;;27.52;40.37;95822.19;5034348;28;19938;-53
2022/10/16 10:38:27;;;;;;;;;;;35.10;44.60;;;27.30;39.71;95831.22;5042302;28;19934;-54
2022/10/16 10:41:22;;;;;;;;;;;35.40;44.30;;;27.19;39.39;95822.84;5042033;28;19908;-48
2022/10/16 10:44:12;;;;;;;;;;;35.50;44.10;;;27.56;40.74;95825.75;5017016;28;19909;-49
2022/10/16 10:47:13;;;;;;;;;;;35.60;43.80;;;27.88;40.20;95826.25;5028429;28;19940;-49
2022/10/16 10:51:04;;;;;;;;;;;35.90;43.60;;;28.18;38.84;95825.47;5029904;28;19947;-51
2022/10/16 10:53:51;;;;;;;;;;;36.10;43.30;;;28.35;38.22;95822.13;4970866;28;19948;-51
2022/10/16 10:56:39;;;;;;;;;;;36.40;43.10;;;28.57;38.10;95820.44;4959405;28;19922;-48
2022/10/16 10:59:28;;;;;;;;;;;36.60;42.90;;;28.55;38.60;95821.97;5025375;28;19916;-49
2022/10/16 11:02:20;;;;;;;;;;;36.90;42.60;;;28.53;36.98;95819.63;5022286;28;20011;-51
2022/10/16 11:05:18;;;;;;;;;;;37.00;42.20;;;28.92;36.77;95811.00;5031509;28;19940;-53
2022/10/16 11:08:28;;;;;;;;;;;37.30;41.90;;;29.05;36.79;95812.34;5020638;28;19916;-48
2022/10/16 11:11:14;;;;;;;;;;;37.60;41.70;;;29.18;37.20;95818.34;4989093;28;19913;-48
2022/10/16 11:14:19;;;;;;;;;;;38.00;41.20;;;28.97;36.08;95815.38;5011766;28;19947;-52
2022/10/16 11:17:21;;;;;;;;;;;38.30;40.90;;;29.50;36.28;95815.03;5027562;28;19916;-50
2022/10/16 11:20:00;;;;;;;;;;;38.60;40.40;;;29.80;34.14;95803.88;5019429;28;19944;-48
2022/10/16 11:22:44;;;;;;;;;;;38.80;40.10;;;30.16;33.55;95804.06;5016817;28;19916;-48
2022/10/16 11:25:25;;;;;;;;;;;39.10;39.80;;;30.34;32.17;95801.41;5043862;28;19931;-49
2022/10/16 11:28:03;;;;;;;;;;;39.30;39.50;;;30.01;33.46;95800.47;5027226;28;19912;-49
2022/10/16 11:30:38;;;;;;;;;;;39.30;39.20;;;29.89;34.01;95795.28;5040618;28;20002;-50
2022/10/16 11:33:48;;;;;;;;;;;39.20;39.10;;;30.41;35.59;95788.47;5006210;28;19912;-49
2022/10/16 11:36:50;;;;;;;;;;;39.40;38.80;;;30.83;30.23;95777.97;5027350;28;20268;-48
2022/10/16 11:39:24;;;;;;;;;;;39.60;38.50;;;31.07;30.63;95779.97;5018914;28;19912;-50
2022/10/16 11:42:12;;;;;;;;;;;39.80;38.30;;;31.08;31.50;95780.75;5019335;28;19947;-49
2022/10/16 11:45:17;;;;;;;;;;;39.90;38.00;;;30.95;30.77;95777.59;5027882;28;19948;-48
2022/10/16 11:47:54;;;;;;;;;;;40.00;37.80;;;30.34;31.70;95779.44;5032832;28;19912;-48
2022/10/16 11:50:59;;;;;;;;;;;40.10;37.70;;;29.58;32.25;95772.75;5014365;28;20620;-54
2022/10/16 11:53:58;;;;;;;;;;;40.10;37.60;;;29.44;32.15;95776.19;5015408;28;19908;-52